sensor_id;sensor_type;location;lat;lon;timestamp;temperature;humidity
77305;DHT22;66364;52.622;7.746;2023-03-16T00:01:40;4.20;39.40
77305;DHT22;66364;52.622;7.746;2023-03-16T00:03:41;3.70;39.30
77305;DHT22;66364;52.622;7.746;2023-03-16T00:05:41;4.30;40.10
77305;DHT22;66364;52.622;7.746;2023-03-16T00:07:42;4.40;40.00
77305;DHT22;66364;52.622;7.746;2023-03-16T00:09:43;4.20;39.40
77305;DHT22;66364;52.622;7.746;2023-03-16T00:11:44;4.30;40.80
77305;DHT22;66364;52.622;7.746;2023-03-16T00:13:45;4.40;40.10
77305;DHT22;66364;52.622;7.746;2023-03-16T00:17:52;4.60;40.70
77305;DHT22;66364;52.622;7.746;2023-03-16T00:19:54;4.40;41.40
77305;DHT22;66364;52.622;7.746;2023-03-16T00:21:55;4.40;40.40
77305;DHT22;66364;52.622;7.746;2023-03-16T00:24:00;4.00;41.80
77305;DHT22;66364;52.622;7.746;2023-03-16T00:25:59;4.30;42.30
77305;DHT22;66364;52.622;7.746;2023-03-16T00:28:00;4.30;40.90
77305;DHT22;66364;52.622;7.746;2023-03-16T00:30:00;4.10;41.40
77305;DHT22;66364;52.622;7.746;2023-03-16T00:32:01;4.10;45.20
77305;DHT22;66364;52.622;7.746;2023-03-16T00:34:02;4.00;47.70
77305;DHT22;66364;52.622;7.746;2023-03-16T00:36:04;4.00;47.90
77305;DHT22;66364;52.622;7.746;2023-03-16T00:38:05;3.90;52.80
77305;DHT22;66364;52.622;7.746;2023-03-16T00:40:07;3.70;50.90
77305;DHT22;66364;52.622;7.746;2023-03-16T00:42:09;3.80;53.70
77305;DHT22;66364;52.622;7.746;2023-03-16T00:44:10;3.30;50.80
77305;DHT22;66364;52.622;7.746;2023-03-16T00:48:53;3.60;53.20
77305;DHT22;66364;52.622;7.746;2023-03-16T00:50:54;3.30;58.10
77305;DHT22;66364;52.622;7.746;2023-03-16T00:52:54;3.10;60.70
77305;DHT22;66364;52.622;7.746;2023-03-16T00:54:55;3.00;60.50
77305;DHT22;66364;52.622;7.746;2023-03-16T00:56:56;3.10;60.10
77305;DHT22;66364;52.622;7.746;2023-03-16T00:58:57;2.80;59.10
77305;DHT22;66364;52.622;7.746;2023-03-16T01:00:58;3.30;56.20
77305;DHT22;66364;52.622;7.746;2023-03-16T01:02:58;3.20;56.70
77305;DHT22;66364;52.622;7.746;2023-03-16T01:04:59;3.30;54.50
77305;DHT22;66364;52.622;7.746;2023-03-16T01:07:01;3.30;57.10
77305;DHT22;66364;52.622;7.746;2023-03-16T01:09:02;3.30;54.90
77305;DHT22;66364;52.622;7.746;2023-03-16T01:11:13;3.40;56.10
77305;DHT22;66364;52.622;7.746;2023-03-16T01:13:10;3.50;54.10
77305;DHT22;66364;52.622;7.746;2023-03-16T01:15:11;3.50;53.50
77305;DHT22;66364;52.622;7.746;2023-03-16T01:17:13;3.60;52.50
77305;DHT22;66364;52.622;7.746;2023-03-16T01:19:14;3.50;52.00
77305;DHT22;66364;52.622;7.746;2023-03-16T01:21:15;3.90;51.90
77305;DHT22;66364;52.622;7.746;2023-03-16T01:23:16;3.80;50.60
77305;DHT22;66364;52.622;7.746;2023-03-16T01:25:17;4.00;50.70
77305;DHT22;66364;52.622;7.746;2023-03-16T01:27:18;4.00;50.20
77305;DHT22;66364;52.622;7.746;2023-03-16T01:29:18;3.80;49.40
77305;DHT22;66364;52.622;7.746;2023-03-16T01:31:19;3.70;49.60
77305;DHT22;66364;52.622;7.746;2023-03-16T01:33:20;3.90;49.20
77305;DHT22;66364;52.622;7.746;2023-03-16T01:35:21;3.80;50.40
77305;DHT22;66364;52.622;7.746;2023-03-16T01:37:21;3.90;49.80
77305;DHT22;66364;52.622;7.746;2023-03-16T01:39:22;4.00;50.40
77305;DHT22;66364;52.622;7.746;2023-03-16T01:41:23;4.00;50.10
77305;DHT22;66364;52.622;7.746;2023-03-16T01:43:26;3.70;50.60
77305;DHT22;66364;52.622;7.746;2023-03-16T01:48:07;4.00;50.90
77305;DHT22;66364;52.622;7.746;2023-03-16T01:50:08;3.50;49.60
77305;DHT22;66364;52.622;7.746;2023-03-16T01:52:12;3.90;51.40
77305;DHT22;66364;52.622;7.746;2023-03-16T01:58:51;3.70;52.40
77305;DHT22;66364;52.622;7.746;2023-03-16T02:00:53;4.10;52.30
77305;DHT22;66364;52.622;7.746;2023-03-16T02:05:50;3.80;53.10
77305;DHT22;66364;52.622;7.746;2023-03-16T02:07:49;3.70;52.50
77305;DHT22;66364;52.622;7.746;2023-03-16T02:09:53;3.60;52.80
77305;DHT22;66364;52.622;7.746;2023-03-16T02:11:54;3.80;52.80
77305;DHT22;66364;52.622;7.746;2023-03-16T02:13:57;3.80;53.30
77305;DHT22;66364;52.622;7.746;2023-03-16T02:15:59;3.50;52.40
77305;DHT22;66364;52.622;7.746;2023-03-16T02:18:00;3.90;53.30
77305;DHT22;66364;52.622;7.746;2023-03-16T02:22:45;3.80;54.50
77305;DHT22;66364;52.622;7.746;2023-03-16T02:25:14;3.80;54.70
77305;DHT22;66364;52.622;7.746;2023-03-16T02:27:30;3.90;54.10
77305;DHT22;66364;52.622;7.746;2023-03-16T02:29:39;3.90;54.80
77305;DHT22;66364;52.622;7.746;2023-03-16T02:31:57;3.60;54.80
77305;DHT22;66364;52.622;7.746;2023-03-16T02:33:59;3.50;54.90
77305;DHT22;66364;52.622;7.746;2023-03-16T02:35:59;3.70;55.10
77305;DHT22;66364;52.622;7.746;2023-03-16T02:38:00;3.60;54.20
77305;DHT22;66364;52.622;7.746;2023-03-16T02:40:12;3.70;54.20
77305;DHT22;66364;52.622;7.746;2023-03-16T02:42:04;3.60;53.60
77305;DHT22;66364;52.622;7.746;2023-03-16T02:44:14;3.80;53.80
77305;DHT22;66364;52.622;7.746;2023-03-16T02:46:16;3.70;53.70
77305;DHT22;66364;52.622;7.746;2023-03-16T02:48:28;3.60;53.40
77305;DHT22;66364;52.622;7.746;2023-03-16T02:50:29;3.50;53.60
77305;DHT22;66364;52.622;7.746;2023-03-16T02:52:29;3.80;54.10
77305;DHT22;66364;52.622;7.746;2023-03-16T02:54:30;3.50;54.90
77305;DHT22;66364;52.622;7.746;2023-03-16T02:56:31;3.60;55.90
77305;DHT22;66364;52.622;7.746;2023-03-16T02:58:32;2.90;54.50
77305;DHT22;66364;52.622;7.746;2023-03-16T03:00:32;3.60;55.30
77305;DHT22;66364;52.622;7.746;2023-03-16T03:02:33;3.60;55.00
77305;DHT22;66364;52.622;7.746;2023-03-16T03:04:34;3.60;54.60
77305;DHT22;66364;52.622;7.746;2023-03-16T03:06:34;3.50;54.80
77305;DHT22;66364;52.622;7.746;2023-03-16T03:08:35;3.90;55.70
77305;DHT22;66364;52.622;7.746;2023-03-16T03:10:36;3.50;55.20
77305;DHT22;66364;52.622;7.746;2023-03-16T03:12:37;3.50;55.40
77305;DHT22;66364;52.622;7.746;2023-03-16T03:14:38;3.80;56.20
77305;DHT22;66364;52.622;7.746;2023-03-16T03:16:39;3.50;56.40
77305;DHT22;66364;52.622;7.746;2023-03-16T03:18:40;3.50;56.50
77305;DHT22;66364;52.622;7.746;2023-03-16T03:20:41;3.60;56.60
77305;DHT22;66364;52.622;7.746;2023-03-16T03:22:43;3.10;55.60
77305;DHT22;66364;52.622;7.746;2023-03-16T03:24:44;2.90;55.30
77305;DHT22;66364;52.622;7.746;2023-03-16T03:26:45;3.50;56.20
77305;DHT22;66364;52.622;7.746;2023-03-16T03:28:46;3.70;56.60
77305;DHT22;66364;52.622;7.746;2023-03-16T03:30:47;3.50;57.00
77305;DHT22;66364;52.622;7.746;2023-03-16T03:32:48;3.40;57.50
77305;DHT22;66364;52.622;7.746;2023-03-16T03:34:48;3.70;56.90
77305;DHT22;66364;52.622;7.746;2023-03-16T03:36:49;3.40;57.40
77305;DHT22;66364;52.622;7.746;2023-03-16T03:38:49;3.50;57.70
77305;DHT22;66364;52.622;7.746;2023-03-16T03:40:51;3.10;57.90
77305;DHT22;66364;52.622;7.746;2023-03-16T03:42:52;3.40;58.10
77305;DHT22;66364;52.622;7.746;2023-03-16T03:44:52;3.50;57.30
77305;DHT22;66364;52.622;7.746;2023-03-16T03:46:53;3.50;58.70
77305;DHT22;66364;52.622;7.746;2023-03-16T03:48:54;3.40;58.20
77305;DHT22;66364;52.622;7.746;2023-03-16T03:50:54;3.50;59.40
77305;DHT22;66364;52.622;7.746;2023-03-16T03:52:55;3.70;58.70
77305;DHT22;66364;52.622;7.746;2023-03-16T03:54:56;3.30;58.60
77305;DHT22;66364;52.622;7.746;2023-03-16T03:56:56;3.40;59.50
77305;DHT22;66364;52.622;7.746;2023-03-16T03:58:57;3.50;59.30
77305;DHT22;66364;52.622;7.746;2023-03-16T04:00:58;3.30;57.40
77305;DHT22;66364;52.622;7.746;2023-03-16T04:02:58;3.50;58.90
77305;DHT22;66364;52.622;7.746;2023-03-16T04:04:59;3.50;57.80
77305;DHT22;66364;52.622;7.746;2023-03-16T04:07:00;3.60;56.60
77305;DHT22;66364;52.622;7.746;2023-03-16T04:09:00;3.50;57.00
77305;DHT22;66364;52.622;7.746;2023-03-16T04:11:01;3.60;56.70
77305;DHT22;66364;52.622;7.746;2023-03-16T04:13:02;3.40;54.80
77305;DHT22;66364;52.622;7.746;2023-03-16T04:15:03;3.80;54.40
77305;DHT22;66364;52.622;7.746;2023-03-16T04:17:04;3.90;55.00
77305;DHT22;66364;52.622;7.746;2023-03-16T04:19:05;3.50;55.30
77305;DHT22;66364;52.622;7.746;2023-03-16T04:21:08;3.60;55.00
77305;DHT22;66364;52.622;7.746;2023-03-16T04:23:09;3.60;54.20
77305;DHT22;66364;52.622;7.746;2023-03-16T04:25:11;3.70;54.10
77305;DHT22;66364;52.622;7.746;2023-03-16T04:27:12;3.60;53.80
77305;DHT22;66364;52.622;7.746;2023-03-16T04:29:13;3.50;51.60
77305;DHT22;66364;52.622;7.746;2023-03-16T04:31:15;3.40;50.30
77305;DHT22;66364;52.622;7.746;2023-03-16T04:33:15;3.80;49.60
77305;DHT22;66364;52.622;7.746;2023-03-16T04:35:16;3.90;48.60
77305;DHT22;66364;52.622;7.746;2023-03-16T04:37:17;4.00;48.80
77305;DHT22;66364;52.622;7.746;2023-03-16T04:39:19;3.90;48.20
77305;DHT22;66364;52.622;7.746;2023-03-16T04:41:19;4.00;47.60
77305;DHT22;66364;52.622;7.746;2023-03-16T04:43:20;3.80;48.70
77305;DHT22;66364;52.622;7.746;2023-03-16T04:45:41;4.10;47.90
77305;DHT22;66364;52.622;7.746;2023-03-16T04:47:41;3.90;48.50
77305;DHT22;66364;52.622;7.746;2023-03-16T04:49:42;3.90;47.20
77305;DHT22;66364;52.622;7.746;2023-03-16T04:51:43;3.80;46.70
77305;DHT22;66364;52.622;7.746;2023-03-16T04:53:43;3.90;47.20
77305;DHT22;66364;52.622;7.746;2023-03-16T04:55:45;4.20;48.50
77305;DHT22;66364;52.622;7.746;2023-03-16T04:57:46;3.90;46.80
77305;DHT22;66364;52.622;7.746;2023-03-16T04:59:46;4.00;47.20
77305;DHT22;66364;52.622;7.746;2023-03-16T05:01:48;4.20;48.30
77305;DHT22;66364;52.622;7.746;2023-03-16T05:03:48;3.90;48.40
77305;DHT22;66364;52.622;7.746;2023-03-16T05:05:49;3.70;47.80
77305;DHT22;66364;52.622;7.746;2023-03-16T05:07:50;3.90;47.80
77305;DHT22;66364;52.622;7.746;2023-03-16T05:09:50;4.10;48.70
77305;DHT22;66364;52.622;7.746;2023-03-16T05:11:51;3.60;48.40
77305;DHT22;66364;52.622;7.746;2023-03-16T05:13:52;3.90;49.00
77305;DHT22;66364;52.622;7.746;2023-03-16T05:15:52;3.70;49.10
77305;DHT22;66364;52.622;7.746;2023-03-16T05:17:54;3.90;48.00
77305;DHT22;66364;52.622;7.746;2023-03-16T05:19:55;3.80;48.40
77305;DHT22;66364;52.622;7.746;2023-03-16T05:22:15;3.40;48.80
77305;DHT22;66364;52.622;7.746;2023-03-16T05:24:16;4.20;49.40
77305;DHT22;66364;52.622;7.746;2023-03-16T05:26:17;4.00;49.30
77305;DHT22;66364;52.622;7.746;2023-03-16T05:28:18;3.80;49.50
77305;DHT22;66364;52.622;7.746;2023-03-16T05:30:19;4.00;50.10
77305;DHT22;66364;52.622;7.746;2023-03-16T05:32:19;4.00;50.00
77305;DHT22;66364;52.622;7.746;2023-03-16T05:34:20;4.00;50.10
77305;DHT22;66364;52.622;7.746;2023-03-16T05:36:26;4.10;50.30
77305;DHT22;66364;52.622;7.746;2023-03-16T05:38:26;4.20;50.20
77305;DHT22;66364;52.622;7.746;2023-03-16T05:40:27;3.30;49.30
77305;DHT22;66364;52.622;7.746;2023-03-16T05:42:27;3.90;50.40
77305;DHT22;66364;52.622;7.746;2023-03-16T05:44:28;4.00;50.70
77305;DHT22;66364;52.622;7.746;2023-03-16T05:46:29;4.00;50.50
77305;DHT22;66364;52.622;7.746;2023-03-16T05:48:30;3.90;49.30
77305;DHT22;66364;52.622;7.746;2023-03-16T05:50:30;3.50;49.00
77305;DHT22;66364;52.622;7.746;2023-03-16T05:52:31;4.00;49.40
77305;DHT22;66364;52.622;7.746;2023-03-16T05:54:32;4.10;49.70
77305;DHT22;66364;52.622;7.746;2023-03-16T05:56:33;3.90;49.60
77305;DHT22;66364;52.622;7.746;2023-03-16T05:58:33;3.90;49.50
77305;DHT22;66364;52.622;7.746;2023-03-16T06:00:34;3.80;49.20
77305;DHT22;66364;52.622;7.746;2023-03-16T06:02:36;3.90;49.80
77305;DHT22;66364;52.622;7.746;2023-03-16T06:04:36;3.40;49.60
77305;DHT22;66364;52.622;7.746;2023-03-16T06:06:37;3.90;49.80
77305;DHT22;66364;52.622;7.746;2023-03-16T06:08:38;3.90;49.80
77305;DHT22;66364;52.622;7.746;2023-03-16T06:10:38;4.10;50.00
77305;DHT22;66364;52.622;7.746;2023-03-16T06:12:39;3.90;49.20
77305;DHT22;66364;52.622;7.746;2023-03-16T06:14:40;3.70;49.00
77305;DHT22;66364;52.622;7.746;2023-03-16T06:16:41;4.10;49.30
77305;DHT22;66364;52.622;7.746;2023-03-16T06:18:42;3.90;49.00
77305;DHT22;66364;52.622;7.746;2023-03-16T06:20:43;4.30;50.00
77305;DHT22;66364;52.622;7.746;2023-03-16T06:22:44;4.10;49.70
77305;DHT22;66364;52.622;7.746;2023-03-16T06:24:45;4.00;50.00
77305;DHT22;66364;52.622;7.746;2023-03-16T06:26:45;4.20;49.70
77305;DHT22;66364;52.622;7.746;2023-03-16T06:28:51;4.10;49.70
77305;DHT22;66364;52.622;7.746;2023-03-16T06:30:53;4.40;49.80
77305;DHT22;66364;52.622;7.746;2023-03-16T06:32:53;4.00;49.90
77305;DHT22;66364;52.622;7.746;2023-03-16T06:34:54;4.40;50.20
77305;DHT22;66364;52.622;7.746;2023-03-16T06:36:55;4.40;50.80
77305;DHT22;66364;52.622;7.746;2023-03-16T06:38:55;4.30;50.00
77305;DHT22;66364;52.622;7.746;2023-03-16T06:40:56;4.10;49.70
77305;DHT22;66364;52.622;7.746;2023-03-16T06:42:57;3.90;49.40
77305;DHT22;66364;52.622;7.746;2023-03-16T06:44:57;3.70;49.30
77305;DHT22;66364;52.622;7.746;2023-03-16T06:46:58;4.00;50.20
77305;DHT22;66364;52.622;7.746;2023-03-16T06:48:59;4.10;49.80
77305;DHT22;66364;52.622;7.746;2023-03-16T06:50:59;4.10;50.00
77305;DHT22;66364;52.622;7.746;2023-03-16T06:53:00;4.40;50.80
77305;DHT22;66364;52.622;7.746;2023-03-16T06:55:01;4.00;49.70
77305;DHT22;66364;52.622;7.746;2023-03-16T06:57:03;4.60;51.60
77305;DHT22;66364;52.622;7.746;2023-03-16T06:59:03;4.20;50.00
77305;DHT22;66364;52.622;7.746;2023-03-16T07:01:04;4.80;51.90
77305;DHT22;66364;52.622;7.746;2023-03-16T07:03:05;4.50;51.50
77305;DHT22;66364;52.622;7.746;2023-03-16T07:05:06;4.30;50.90
77305;DHT22;66364;52.622;7.746;2023-03-16T07:07:08;4.60;50.20
77305;DHT22;66364;52.622;7.746;2023-03-16T07:09:09;4.30;50.40
77305;DHT22;66364;52.622;7.746;2023-03-16T07:11:09;4.50;51.00
77305;DHT22;66364;52.622;7.746;2023-03-16T07:13:10;4.70;50.70
77305;DHT22;66364;52.622;7.746;2023-03-16T07:15:11;4.40;50.40
77305;DHT22;66364;52.622;7.746;2023-03-16T07:17:12;4.50;50.40
77305;DHT22;66364;52.622;7.746;2023-03-16T07:19:13;4.80;51.10
77305;DHT22;66364;52.622;7.746;2023-03-16T07:21:14;4.60;50.20
77305;DHT22;66364;52.622;7.746;2023-03-16T07:23:15;4.70;50.30
77305;DHT22;66364;52.622;7.746;2023-03-16T07:25:16;5.00;51.40
77305;DHT22;66364;52.622;7.746;2023-03-16T07:27:16;4.90;50.80
77305;DHT22;66364;52.622;7.746;2023-03-16T07:29:17;4.80;50.90
77305;DHT22;66364;52.622;7.746;2023-03-16T07:31:18;4.50;49.70
77305;DHT22;66364;52.622;7.746;2023-03-16T07:33:18;5.10;50.10
77305;DHT22;66364;52.622;7.746;2023-03-16T07:35:19;4.90;51.00
77305;DHT22;66364;52.622;7.746;2023-03-16T07:37:20;5.00;50.70
77305;DHT22;66364;52.622;7.746;2023-03-16T07:39:20;4.90;50.50
77305;DHT22;66364;52.622;7.746;2023-03-16T07:41:21;5.00;49.20
77305;DHT22;66364;52.622;7.746;2023-03-16T07:43:22;4.80;50.80
77305;DHT22;66364;52.622;7.746;2023-03-16T07:45:22;5.10;49.90
77305;DHT22;66364;52.622;7.746;2023-03-16T07:47:23;5.00;50.20
77305;DHT22;66364;52.622;7.746;2023-03-16T07:49:24;5.10;50.10
77305;DHT22;66364;52.622;7.746;2023-03-16T07:51:25;5.20;50.50
77305;DHT22;66364;52.622;7.746;2023-03-16T07:53:31;4.70;49.70
77305;DHT22;66364;52.622;7.746;2023-03-16T07:55:32;5.20;50.90
77305;DHT22;66364;52.622;7.746;2023-03-16T07:57:33;5.00;51.40
77305;DHT22;66364;52.622;7.746;2023-03-16T07:59:33;5.10;51.70
77305;DHT22;66364;52.622;7.746;2023-03-16T08:01:34;4.90;51.00
77305;DHT22;66364;52.622;7.746;2023-03-16T08:03:35;5.30;50.90
77305;DHT22;66364;52.622;7.746;2023-03-16T08:05:35;5.30;50.60
77305;DHT22;66364;52.622;7.746;2023-03-16T08:07:36;5.50;51.20
77305;DHT22;66364;52.622;7.746;2023-03-16T08:09:37;5.10;50.50
77305;DHT22;66364;52.622;7.746;2023-03-16T08:11:37;5.40;50.40
77305;DHT22;66364;52.622;7.746;2023-03-16T08:13:38;5.40;50.90
77305;DHT22;66364;52.622;7.746;2023-03-16T08:15:39;5.30;50.50
77305;DHT22;66364;52.622;7.746;2023-03-16T08:17:40;4.90;50.00
77305;DHT22;66364;52.622;7.746;2023-03-16T08:19:42;5.60;51.10
77305;DHT22;66364;52.622;7.746;2023-03-16T08:21:42;5.50;52.50
77305;DHT22;66364;52.622;7.746;2023-03-16T08:23:43;5.70;50.20
77305;DHT22;66364;52.622;7.746;2023-03-16T08:25:44;5.50;50.30
77305;DHT22;66364;52.622;7.746;2023-03-16T08:27:45;5.70;50.30
77305;DHT22;66364;52.622;7.746;2023-03-16T08:29:51;5.10;49.50
77305;DHT22;66364;52.622;7.746;2023-03-16T08:31:53;5.70;49.60
77305;DHT22;66364;52.622;7.746;2023-03-16T08:33:54;5.30;49.70
77305;DHT22;66364;52.622;7.746;2023-03-16T08:35:55;5.30;50.30
77305;DHT22;66364;52.622;7.746;2023-03-16T08:37:56;5.40;48.50
77305;DHT22;66364;52.622;7.746;2023-03-16T08:39:57;5.90;50.00
77305;DHT22;66364;52.622;7.746;2023-03-16T08:41:57;5.80;49.70
77305;DHT22;66364;52.622;7.746;2023-03-16T08:43:58;5.80;51.00
77305;DHT22;66364;52.622;7.746;2023-03-16T08:45:59;5.30;48.10
77305;DHT22;66364;52.622;7.746;2023-03-16T08:48:00;5.60;47.70
77305;DHT22;66364;52.622;7.746;2023-03-16T08:50:03;5.60;48.00
77305;DHT22;66364;52.622;7.746;2023-03-16T08:52:05;6.20;48.30
77305;DHT22;66364;52.622;7.746;2023-03-16T08:54:05;6.10;47.80
77305;DHT22;66364;52.622;7.746;2023-03-16T08:56:12;6.20;47.10
77305;DHT22;66364;52.622;7.746;2023-03-16T08:58:11;6.20;46.50
77305;DHT22;66364;52.622;7.746;2023-03-16T09:00:13;5.70;46.50
77305;DHT22;66364;52.622;7.746;2023-03-16T09:02:13;6.30;47.40
77305;DHT22;66364;52.622;7.746;2023-03-16T09:04:14;6.00;46.50
77305;DHT22;66364;52.622;7.746;2023-03-16T09:06:15;6.20;46.70
77305;DHT22;66364;52.622;7.746;2023-03-16T09:08:17;6.50;48.40
77305;DHT22;66364;52.622;7.746;2023-03-16T09:10:18;6.40;45.20
77305;DHT22;66364;52.622;7.746;2023-03-16T09:12:19;6.60;45.20
77305;DHT22;66364;52.622;7.746;2023-03-16T09:14:20;6.30;45.40
77305;DHT22;66364;52.622;7.746;2023-03-16T09:16:21;6.50;44.70
77305;DHT22;66364;52.622;7.746;2023-03-16T09:18:23;6.90;45.20
77305;DHT22;66364;52.622;7.746;2023-03-16T09:20:24;6.60;44.60
77305;DHT22;66364;52.622;7.746;2023-03-16T09:22:25;6.60;47.60
77305;DHT22;66364;52.622;7.746;2023-03-16T09:24:26;6.80;49.20
77305;DHT22;66364;52.622;7.746;2023-03-16T09:26:27;6.50;48.20
77305;DHT22;66364;52.622;7.746;2023-03-16T09:28:28;7.00;49.30
77305;DHT22;66364;52.622;7.746;2023-03-16T09:30:29;6.60;48.70
77305;DHT22;66364;52.622;7.746;2023-03-16T09:32:30;6.60;48.80
77305;DHT22;66364;52.622;7.746;2023-03-16T09:34:30;6.20;50.80
77305;DHT22;66364;52.622;7.746;2023-03-16T09:36:31;6.50;49.00
77305;DHT22;66364;52.622;7.746;2023-03-16T09:38:32;6.70;50.00
77305;DHT22;66364;52.622;7.746;2023-03-16T09:40:33;7.00;50.60
77305;DHT22;66364;52.622;7.746;2023-03-16T09:42:37;6.70;48.20
77305;DHT22;66364;52.622;7.746;2023-03-16T09:44:51;6.40;49.20
77305;DHT22;66364;52.622;7.746;2023-03-16T09:46:50;6.60;49.50
77305;DHT22;66364;52.622;7.746;2023-03-16T09:48:54;6.50;48.60
77305;DHT22;66364;52.622;7.746;2023-03-16T09:50:57;6.60;49.10
77305;DHT22;66364;52.622;7.746;2023-03-16T09:53:24;6.70;50.40
77305;DHT22;66364;52.622;7.746;2023-03-16T09:55:34;6.50;52.00
77305;DHT22;66364;52.622;7.746;2023-03-16T09:57:38;6.70;51.80
77305;DHT22;66364;52.622;7.746;2023-03-16T09:59:40;6.20;50.70
77305;DHT22;66364;52.622;7.746;2023-03-16T10:02:25;6.80;50.60
77305;DHT22;66364;52.622;7.746;2023-03-16T10:18:20;6.90;53.80
77305;DHT22;66364;52.622;7.746;2023-03-16T10:20:23;7.00;53.20
77305;DHT22;66364;52.622;7.746;2023-03-16T10:22:29;7.00;52.80
77305;DHT22;66364;52.622;7.746;2023-03-16T10:26:56;7.00;51.30
77305;DHT22;66364;52.622;7.746;2023-03-16T10:28:57;6.90;52.50
77305;DHT22;66364;52.622;7.746;2023-03-16T10:31:00;6.90;54.00
77305;DHT22;66364;52.622;7.746;2023-03-16T10:33:16;7.30;56.00
77305;DHT22;66364;52.622;7.746;2023-03-16T10:37:39;7.20;52.50
77305;DHT22;66364;52.622;7.746;2023-03-16T10:39:40;7.30;54.00
77305;DHT22;66364;52.622;7.746;2023-03-16T10:41:43;7.50;51.50
77305;DHT22;66364;52.622;7.746;2023-03-16T10:43:45;7.30;52.60
77305;DHT22;66364;52.622;7.746;2023-03-16T10:45:46;7.20;50.20
77305;DHT22;66364;52.622;7.746;2023-03-16T10:47:47;7.80;53.30
77305;DHT22;66364;52.622;7.746;2023-03-16T10:49:47;7.70;51.10
77305;DHT22;66364;52.622;7.746;2023-03-16T10:51:48;7.50;50.90
77305;DHT22;66364;52.622;7.746;2023-03-16T10:53:50;7.30;52.90
77305;DHT22;66364;52.622;7.746;2023-03-16T10:56:01;7.30;53.40
77305;DHT22;66364;52.622;7.746;2023-03-16T10:57:58;7.40;54.30
77305;DHT22;66364;52.622;7.746;2023-03-16T11:02:30;7.20;55.50
77305;DHT22;66364;52.622;7.746;2023-03-16T11:04:31;7.40;56.60
77305;DHT22;66364;52.622;7.746;2023-03-16T11:06:32;7.30;56.50
77305;DHT22;66364;52.622;7.746;2023-03-16T11:08:37;7.40;57.30
77305;DHT22;66364;52.622;7.746;2023-03-16T11:10:40;7.20;58.00
77305;DHT22;66364;52.622;7.746;2023-03-16T11:12:46;7.30;60.10
77305;DHT22;66364;52.622;7.746;2023-03-16T11:14:46;7.40;62.20
77305;DHT22;66364;52.622;7.746;2023-03-16T11:19:29;7.60;64.80
77305;DHT22;66364;52.622;7.746;2023-03-16T11:23:48;7.60;70.20
77305;DHT22;66364;52.622;7.746;2023-03-16T11:25:52;7.70;71.60
77305;DHT22;66364;52.622;7.746;2023-03-16T11:30:13;7.50;73.40
77305;DHT22;66364;52.622;7.746;2023-03-16T11:32:20;7.20;77.40
77305;DHT22;66364;52.622;7.746;2023-03-16T11:34:27;7.40;85.10
77305;DHT22;66364;52.622;7.746;2023-03-16T11:36:42;7.30;89.20
77305;DHT22;66364;52.622;7.746;2023-03-16T11:39:22;7.20;87.30
77305;DHT22;66364;52.622;7.746;2023-03-16T11:45:35;7.40;90.90
77305;DHT22;66364;52.622;7.746;2023-03-16T11:47:54;7.40;91.60
77305;DHT22;66364;52.622;7.746;2023-03-16T11:50:16;7.40;92.40
77305;DHT22;66364;52.622;7.746;2023-03-16T11:56:51;7.40;93.30
77305;DHT22;66364;52.622;7.746;2023-03-16T12:03:43;7.20;95.30
77305;DHT22;66364;52.622;7.746;2023-03-16T12:13:10;7.20;98.80
77305;DHT22;66364;52.622;7.746;2023-03-16T12:24:45;6.80;99.90
77305;DHT22;66364;52.622;7.746;2023-03-16T12:26:46;7.10;99.90
77305;DHT22;66364;52.622;7.746;2023-03-16T12:28:48;7.40;99.90
77305;DHT22;66364;52.622;7.746;2023-03-16T12:31:09;7.40;99.90
77305;DHT22;66364;52.622;7.746;2023-03-16T12:44:55;7.80;96.80
77305;DHT22;66364;52.622;7.746;2023-03-16T12:49:12;7.40;93.80
77305;DHT22;66364;52.622;7.746;2023-03-16T12:51:14;7.70;93.40
77305;DHT22;66364;52.622;7.746;2023-03-16T12:55:42;7.90;92.40
77305;DHT22;66364;52.622;7.746;2023-03-16T13:00:05;7.50;90.00
77305;DHT22;66364;52.622;7.746;2023-03-16T13:02:18;8.10;90.30
77305;DHT22;66364;52.622;7.746;2023-03-16T13:06:21;8.10;85.50
77305;DHT22;66364;52.622;7.746;2023-03-16T13:08:21;8.20;84.40
77305;DHT22;66364;52.622;7.746;2023-03-16T13:10:22;7.90;83.30
77305;DHT22;66364;52.622;7.746;2023-03-16T13:12:30;8.20;81.80
77305;DHT22;66364;52.622;7.746;2023-03-16T13:16:36;8.30;73.70
77305;DHT22;66364;52.622;7.746;2023-03-16T13:21:12;8.30;68.20
77305;DHT22;66364;52.622;7.746;2023-03-16T13:27:32;8.80;62.80
77305;DHT22;66364;52.622;7.746;2023-03-16T13:29:33;8.70;63.00
77305;DHT22;66364;52.622;7.746;2023-03-16T13:31:36;9.00;61.90
77305;DHT22;66364;52.622;7.746;2023-03-16T13:33:38;9.10;60.30
77305;DHT22;66364;52.622;7.746;2023-03-16T13:35:39;9.20;59.80
77305;DHT22;66364;52.622;7.746;2023-03-16T13:37:42;9.10;56.70
77305;DHT22;66364;52.622;7.746;2023-03-16T13:39:51;9.00;57.90
77305;DHT22;66364;52.622;7.746;2023-03-16T13:42:19;9.10;59.00
77305;DHT22;66364;52.622;7.746;2023-03-16T13:44:22;9.20;58.60
77305;DHT22;66364;52.622;7.746;2023-03-16T13:46:28;9.00;57.50
77305;DHT22;66364;52.622;7.746;2023-03-16T13:48:35;8.90;54.00
77305;DHT22;66364;52.622;7.746;2023-03-16T13:50:34;9.40;56.20
77305;DHT22;66364;52.622;7.746;2023-03-16T13:52:55;8.90;54.10
77305;DHT22;66364;52.622;7.746;2023-03-16T13:54:44;9.10;54.40
77305;DHT22;66364;52.622;7.746;2023-03-16T13:56:45;8.90;55.00
77305;DHT22;66364;52.622;7.746;2023-03-16T13:58:48;9.00;51.70
77305;DHT22;66364;52.622;7.746;2023-03-16T14:00:54;9.00;51.60
77305;DHT22;66364;52.622;7.746;2023-03-16T14:02:57;8.90;50.00
77305;DHT22;66364;52.622;7.746;2023-03-16T14:05:08;9.00;51.10
77305;DHT22;66364;52.622;7.746;2023-03-16T14:07:03;9.20;51.80
77305;DHT22;66364;52.622;7.746;2023-03-16T14:09:13;8.80;49.60
77305;DHT22;66364;52.622;7.746;2023-03-16T14:11:09;9.10;51.70
77305;DHT22;66364;52.622;7.746;2023-03-16T14:15:29;9.40;50.30
77305;DHT22;66364;52.622;7.746;2023-03-16T14:17:41;9.40;50.90
77305;DHT22;66364;52.622;7.746;2023-03-16T14:22:04;9.40;47.60
77305;DHT22;66364;52.622;7.746;2023-03-16T14:24:06;9.40;48.30
77305;DHT22;66364;52.622;7.746;2023-03-16T14:26:15;9.60;47.70
77305;DHT22;66364;52.622;7.746;2023-03-16T14:28:18;9.80;42.30
77305;DHT22;66364;52.622;7.746;2023-03-16T14:30:22;10.10;40.50
77305;DHT22;66364;52.622;7.746;2023-03-16T14:32:29;10.10;39.20
77305;DHT22;66364;52.622;7.746;2023-03-16T14:34:36;9.90;40.20
77305;DHT22;66364;52.622;7.746;2023-03-16T14:36:38;10.10;39.00
77305;DHT22;66364;52.622;7.746;2023-03-16T14:38:40;10.10;40.30
77305;DHT22;66364;52.622;7.746;2023-03-16T14:43:03;10.00;39.40
77305;DHT22;66364;52.622;7.746;2023-03-16T14:45:09;10.00;38.90
77305;DHT22;66364;52.622;7.746;2023-03-16T14:47:18;9.70;39.30
77305;DHT22;66364;52.622;7.746;2023-03-16T14:49:22;9.70;39.30
77305;DHT22;66364;52.622;7.746;2023-03-16T14:51:23;9.50;39.20
77305;DHT22;66364;52.622;7.746;2023-03-16T14:53:24;9.70;40.00
77305;DHT22;66364;52.622;7.746;2023-03-16T14:55:24;9.60;40.20
77305;DHT22;66364;52.622;7.746;2023-03-16T14:57:25;9.40;40.90
77305;DHT22;66364;52.622;7.746;2023-03-16T14:59:26;9.30;40.10